Arrow Rock, Missouri
Current Conditions -  °F | °C
As of 4:35 PM on Friday 19 Dec 2014 (Local Time) from KVER Reporting Station
Overcast Overcast  
Wind Chill:   Ceiling: 1200
Heat Index:   Visibility: 10mi
Dew Point:   Wind: 3mph
Humidity: 91%   Direction: 90°E
Pressure: 30.23"   Gusts: NA
Location:  39.07°N, 92.95°W
Report Text: KVER 192235Z AUTO 09003KT 10SM OVC012 03/01 A3023 RMK AO2 T00270013
Loading
Personal Weather Stations






























Interactive Weather Map New forecast layout! Learn more

10-Day Weather Forecast

Advertisements
Track Severe Weather on mobile